sensor_id;sensor_type;location;lat;lon;timestamp;P1;P2;P0
76420;PMS5003;65253;52.354;13.614;2024-01-30T00:00:00;12;12;
76420;PMS5003;65253;52.354;13.614;2024-01-30T00:04:01;8;8;
76420;PMS5003;65253;52.354;13.614;2024-01-30T00:08:00;8;8;
76420;PMS5003;65253;52.354;13.614;2024-01-30T00:12:00;12;9;
76420;PMS5003;65253;52.354;13.614;2024-01-30T00:16:00;14;7;
76420;PMS5003;65253;52.354;13.614;2024-01-30T00:20:01;11;9;
76420;PMS5003;65253;52.354;13.614;2024-01-30T00:24:00;13;10;
76420;PMS5003;65253;52.354;13.614;2024-01-30T00:28:00;10;8;
76420;PMS5003;65253;52.354;13.614;2024-01-30T00:32:00;13;11;
76420;PMS5003;65253;52.354;13.614;2024-01-30T00:36:00;16;11;
76420;PMS5003;65253;52.354;13.614;2024-01-30T00:40:00;13;9;
76420;PMS5003;65253;52.354;13.614;2024-01-30T00:44:00;16;14;
76420;PMS5003;65253;52.354;13.614;2024-01-30T00:48:00;13;9;
76420;PMS5003;65253;52.354;13.614;2024-01-30T00:52:00;12;10;
76420;PMS5003;65253;52.354;13.614;2024-01-30T00:56:00;13;10;
76420;PMS5003;65253;52.354;13.614;2024-01-30T01:00:00;12;10;
76420;PMS5003;65253;52.354;13.614;2024-01-30T01:04:00;10;10;
76420;PMS5003;65253;52.354;13.614;2024-01-30T01:08:00;14;10;
76420;PMS5003;65253;52.354;13.614;2024-01-30T01:12:01;12;9;
76420;PMS5003;65253;52.354;13.614;2024-01-30T01:16:00;14;13;
76420;PMS5003;65253;52.354;13.614;2024-01-30T01:20:00;12;8;
76420;PMS5003;65253;52.354;13.614;2024-01-30T01:24:00;12;10;
76420;PMS5003;65253;52.354;13.614;2024-01-30T01:28:00;12;11;
76420;PMS5003;65253;52.354;13.614;2024-01-30T01:32:00;16;12;
76420;PMS5003;65253;52.354;13.614;2024-01-30T01:36:00;20;12;
76420;PMS5003;65253;52.354;13.614;2024-01-30T01:40:00;15;12;
76420;PMS5003;65253;52.354;13.614;2024-01-30T01:44:00;12;12;
76420;PMS5003;65253;52.354;13.614;2024-01-30T01:48:00;17;13;
76420;PMS5003;65253;52.354;13.614;2024-01-30T01:52:00;13;11;
76420;PMS5003;65253;52.354;13.614;2024-01-30T01:56:00;18;13;
76420;PMS5003;65253;52.354;13.614;2024-01-30T02:00:00;13;11;
76420;PMS5003;65253;52.354;13.614;2024-01-30T02:04:00;19;14;
76420;PMS5003;65253;52.354;13.614;2024-01-30T02:08:00;14;12;
76420;PMS5003;65253;52.354;13.614;2024-01-30T02:12:00;18;15;
76420;PMS5003;65253;52.354;13.614;2024-01-30T02:16:00;15;12;
76420;PMS5003;65253;52.354;13.614;2024-01-30T02:20:01;16;12;
76420;PMS5003;65253;52.354;13.614;2024-01-30T02:24:00;14;11;
76420;PMS5003;65253;52.354;13.614;2024-01-30T02:28:00;17;12;
76420;PMS5003;65253;52.354;13.614;2024-01-30T02:32:00;21;13;
76420;PMS5003;65253;52.354;13.614;2024-01-30T02:36:00;18;13;
76420;PMS5003;65253;52.354;13.614;2024-01-30T02:40:00;16;14;
76420;PMS5003;65253;52.354;13.614;2024-01-30T02:44:00;17;13;
76420;PMS5003;65253;52.354;13.614;2024-01-30T02:48:00;23;14;
76420;PMS5003;65253;52.354;13.614;2024-01-30T02:52:00;15;14;
76420;PMS5003;65253;52.354;13.614;2024-01-30T02:56:02;18;13;
76420;PMS5003;65253;52.354;13.614;2024-01-30T03:00:00;17;13;
76420;PMS5003;65253;52.354;13.614;2024-01-30T03:04:00;13;10;
76420;PMS5003;65253;52.354;13.614;2024-01-30T03:08:00;14;11;
76420;PMS5003;65253;52.354;13.614;2024-01-30T03:12:00;21;14;
76420;PMS5003;65253;52.354;13.614;2024-01-30T03:16:00;17;12;
76420;PMS5003;65253;52.354;13.614;2024-01-30T03:20:01;11;8;
76420;PMS5003;65253;52.354;13.614;2024-01-30T03:24:00;20;13;
76420;PMS5003;65253;52.354;13.614;2024-01-30T03:28:00;15;12;
76420;PMS5003;65253;52.354;13.614;2024-01-30T03:32:00;17;11;
76420;PMS5003;65253;52.354;13.614;2024-01-30T03:36:02;16;13;
76420;PMS5003;65253;52.354;13.614;2024-01-30T03:40:01;15;12;
76420;PMS5003;65253;52.354;13.614;2024-01-30T03:44:00;14;12;
76420;PMS5003;65253;52.354;13.614;2024-01-30T03:48:00;19;14;
76420;PMS5003;65253;52.354;13.614;2024-01-30T03:52:00;15;12;
76420;PMS5003;65253;52.354;13.614;2024-01-30T03:56:00;15;14;
76420;PMS5003;65253;52.354;13.614;2024-01-30T04:00:04;16;15;
76420;PMS5003;65253;52.354;13.614;2024-01-30T04:04:00;20;14;
76420;PMS5003;65253;52.354;13.614;2024-01-30T04:08:00;23;14;
76420;PMS5003;65253;52.354;13.614;2024-01-30T04:12:00;16;15;
76420;PMS5003;65253;52.354;13.614;2024-01-30T04:16:00;19;15;
76420;PMS5003;65253;52.354;13.614;2024-01-30T04:20:00;20;15;
76420;PMS5003;65253;52.354;13.614;2024-01-30T04:24:01;17;14;
76420;PMS5003;65253;52.354;13.614;2024-01-30T04:28:00;11;10;
76420;PMS5003;65253;52.354;13.614;2024-01-30T04:32:00;18;14;
76420;PMS5003;65253;52.354;13.614;2024-01-30T04:36:00;20;12;
76420;PMS5003;65253;52.354;13.614;2024-01-30T04:40:00;17;14;
76420;PMS5003;65253;52.354;13.614;2024-01-30T04:44:00;16;14;
76420;PMS5003;65253;52.354;13.614;2024-01-30T04:48:00;15;12;
76420;PMS5003;65253;52.354;13.614;2024-01-30T04:52:00;19;15;
76420;PMS5003;65253;52.354;13.614;2024-01-30T04:56:00;20;14;
76420;PMS5003;65253;52.354;13.614;2024-01-30T05:00:00;16;16;
76420;PMS5003;65253;52.354;13.614;2024-01-30T05:04:01;24;16;
76420;PMS5003;65253;52.354;13.614;2024-01-30T05:08:00;18;17;
76420;PMS5003;65253;52.354;13.614;2024-01-30T05:12:00;17;14;
76420;PMS5003;65253;52.354;13.614;2024-01-30T05:16:01;16;15;
76420;PMS5003;65253;52.354;13.614;2024-01-30T05:20:00;17;15;
76420;PMS5003;65253;52.354;13.614;2024-01-30T05:24:00;14;13;
76420;PMS5003;65253;52.354;13.614;2024-01-30T05:28:00;16;12;
76420;PMS5003;65253;52.354;13.614;2024-01-30T05:32:00;22;14;
76420;PMS5003;65253;52.354;13.614;2024-01-30T05:36:00;23;17;
76420;PMS5003;65253;52.354;13.614;2024-01-30T05:40:00;26;18;
76420;PMS5003;65253;52.354;13.614;2024-01-30T05:44:00;18;14;
76420;PMS5003;65253;52.354;13.614;2024-01-30T05:48:00;23;18;
76420;PMS5003;65253;52.354;13.614;2024-01-30T05:52:01;21;14;
76420;PMS5003;65253;52.354;13.614;2024-01-30T05:56:01;22;12;
76420;PMS5003;65253;52.354;13.614;2024-01-30T06:00:00;17;16;
76420;PMS5003;65253;52.354;13.614;2024-01-30T06:04:00;17;12;
76420;PMS5003;65253;52.354;13.614;2024-01-30T06:08:01;15;13;
76420;PMS5003;65253;52.354;13.614;2024-01-30T06:12:00;18;14;
76420;PMS5003;65253;52.354;13.614;2024-01-30T06:16:00;20;12;
76420;PMS5003;65253;52.354;13.614;2024-01-30T06:20:00;16;14;
76420;PMS5003;65253;52.354;13.614;2024-01-30T06:24:00;22;13;
76420;PMS5003;65253;52.354;13.614;2024-01-30T06:28:00;18;15;
76420;PMS5003;65253;52.354;13.614;2024-01-30T06:32:00;18;14;
76420;PMS5003;65253;52.354;13.614;2024-01-30T06:36:00;18;14;
76420;PMS5003;65253;52.354;13.614;2024-01-30T06:40:00;19;14;
76420;PMS5003;65253;52.354;13.614;2024-01-30T06:44:01;22;12;
76420;PMS5003;65253;52.354;13.614;2024-01-30T06:48:00;18;14;
76420;PMS5003;65253;52.354;13.614;2024-01-30T06:52:00;22;14;
76420;PMS5003;65253;52.354;13.614;2024-01-30T06:56:00;18;13;
76420;PMS5003;65253;52.354;13.614;2024-01-30T07:00:00;19;14;
76420;PMS5003;65253;52.354;13.614;2024-01-30T07:04:00;22;17;
76420;PMS5003;65253;52.354;13.614;2024-01-30T07:08:00;20;15;
76420;PMS5003;65253;52.354;13.614;2024-01-30T07:12:00;21;15;
76420;PMS5003;65253;52.354;13.614;2024-01-30T07:16:00;24;17;
76420;PMS5003;65253;52.354;13.614;2024-01-30T07:20:00;23;14;
76420;PMS5003;65253;52.354;13.614;2024-01-30T07:24:00;19;16;
76420;PMS5003;65253;52.354;13.614;2024-01-30T07:28:00;23;15;
76420;PMS5003;65253;52.354;13.614;2024-01-30T07:32:00;21;15;
76420;PMS5003;65253;52.354;13.614;2024-01-30T07:36:00;21;15;
76420;PMS5003;65253;52.354;13.614;2024-01-30T07:40:01;21;18;
76420;PMS5003;65253;52.354;13.614;2024-01-30T07:44:00;20;16;
76420;PMS5003;65253;52.354;13.614;2024-01-30T07:48:00;25;15;
76420;PMS5003;65253;52.354;13.614;2024-01-30T07:52:00;18;15;
76420;PMS5003;65253;52.354;13.614;2024-01-30T07:56:00;22;16;
76420;PMS5003;65253;52.354;13.614;2024-01-30T08:00:00;20;15;
76420;PMS5003;65253;52.354;13.614;2024-01-30T08:04:00;21;18;
76420;PMS5003;65253;52.354;13.614;2024-01-30T08:08:00;27;18;
76420;PMS5003;65253;52.354;13.614;2024-01-30T08:12:00;24;19;
76420;PMS5003;65253;52.354;13.614;2024-01-30T08:16:00;26;22;
76420;PMS5003;65253;52.354;13.614;2024-01-30T08:20:00;18;13;
76420;PMS5003;65253;52.354;13.614;2024-01-30T08:24:00;19;13;
76420;PMS5003;65253;52.354;13.614;2024-01-30T08:28:00;30;25;
76420;PMS5003;65253;52.354;13.614;2024-01-30T08:32:00;30;17;
76420;PMS5003;65253;52.354;13.614;2024-01-30T08:36:00;26;17;
76420;PMS5003;65253;52.354;13.614;2024-01-30T08:40:01;23;18;
76420;PMS5003;65253;52.354;13.614;2024-01-30T08:44:00;24;19;
76420;PMS5003;65253;52.354;13.614;2024-01-30T08:48:00;25;16;
76420;PMS5003;65253;52.354;13.614;2024-01-30T08:52:00;22;15;
76420;PMS5003;65253;52.354;13.614;2024-01-30T08:56:01;20;17;
76420;PMS5003;65253;52.354;13.614;2024-01-30T09:00:00;25;20;
76420;PMS5003;65253;52.354;13.614;2024-01-30T09:04:00;19;16;
76420;PMS5003;65253;52.354;13.614;2024-01-30T09:08:00;18;16;
76420;PMS5003;65253;52.354;13.614;2024-01-30T09:12:00;23;17;
76420;PMS5003;65253;52.354;13.614;2024-01-30T09:16:00;20;14;
76420;PMS5003;65253;52.354;13.614;2024-01-30T09:20:00;19;19;
76420;PMS5003;65253;52.354;13.614;2024-01-30T09:24:02;22;19;
76420;PMS5003;65253;52.354;13.614;2024-01-30T09:28:00;22;16;
76420;PMS5003;65253;52.354;13.614;2024-01-30T09:32:00;15;15;
76420;PMS5003;65253;52.354;13.614;2024-01-30T09:36:00;21;14;
76420;PMS5003;65253;52.354;13.614;2024-01-30T09:40:00;14;12;
76420;PMS5003;65253;52.354;13.614;2024-01-30T09:44:00;19;13;
76420;PMS5003;65253;52.354;13.614;2024-01-30T09:48:00;20;12;
76420;PMS5003;65253;52.354;13.614;2024-01-30T09:52:00;17;11;
76420;PMS5003;65253;52.354;13.614;2024-01-30T09:56:00;13;10;
76420;PMS5003;65253;52.354;13.614;2024-01-30T10:00:00;12;10;
76420;PMS5003;65253;52.354;13.614;2024-01-30T10:04:00;15;13;
76420;PMS5003;65253;52.354;13.614;2024-01-30T10:08:00;16;14;
76420;PMS5003;65253;52.354;13.614;2024-01-30T10:12:01;17;11;
76420;PMS5003;65253;52.354;13.614;2024-01-30T10:16:00;13;11;
76420;PMS5003;65253;52.354;13.614;2024-01-30T10:20:03;18;12;
76420;PMS5003;65253;52.354;13.614;2024-01-30T10:24:00;18;11;
76420;PMS5003;65253;52.354;13.614;2024-01-30T10:28:00;18;13;
76420;PMS5003;65253;52.354;13.614;2024-01-30T10:32:00;13;11;
76420;PMS5003;65253;52.354;13.614;2024-01-30T10:36:00;14;13;
76420;PMS5003;65253;52.354;13.614;2024-01-30T10:40:02;17;12;
76420;PMS5003;65253;52.354;13.614;2024-01-30T10:44:02;15;11;
76420;PMS5003;65253;52.354;13.614;2024-01-30T10:48:00;14;12;
76420;PMS5003;65253;52.354;13.614;2024-01-30T10:52:00;17;10;
76420;PMS5003;65253;52.354;13.614;2024-01-30T10:56:00;14;12;
76420;PMS5003;65253;52.354;13.614;2024-01-30T11:00:01;12;12;
76420;PMS5003;65253;52.354;13.614;2024-01-30T11:04:00;18;14;
76420;PMS5003;65253;52.354;13.614;2024-01-30T11:08:10;12;8;
76420;PMS5003;65253;52.354;13.614;2024-01-30T11:12:00;13;12;
76420;PMS5003;65253;52.354;13.614;2024-01-30T11:16:00;12;10;
76420;PMS5003;65253;52.354;13.614;2024-01-30T11:20:00;11;9;
76420;PMS5003;65253;52.354;13.614;2024-01-30T11:24:01;14;9;
76420;PMS5003;65253;52.354;13.614;2024-01-30T11:28:00;13;10;
76420;PMS5003;65253;52.354;13.614;2024-01-30T11:32:00;13;11;
76420;PMS5003;65253;52.354;13.614;2024-01-30T11:36:01;12;12;
76420;PMS5003;65253;52.354;13.614;2024-01-30T11:40:00;14;13;
76420;PMS5003;65253;52.354;13.614;2024-01-30T11:44:03;12;12;
76420;PMS5003;65253;52.354;13.614;2024-01-30T11:48:00;17;13;
76420;PMS5003;65253;52.354;13.614;2024-01-30T11:52:00;15;12;
76420;PMS5003;65253;52.354;13.614;2024-01-30T11:56:00;12;12;
76420;PMS5003;65253;52.354;13.614;2024-01-30T12:00:00;12;8;
76420;PMS5003;65253;52.354;13.614;2024-01-30T12:04:00;19;12;
76420;PMS5003;65253;52.354;13.614;2024-01-30T12:08:03;13;9;
76420;PMS5003;65253;52.354;13.614;2024-01-30T12:12:00;16;11;
76420;PMS5003;65253;52.354;13.614;2024-01-30T12:16:00;12;10;
76420;PMS5003;65253;52.354;13.614;2024-01-30T12:20:04;8;8;
76420;PMS5003;65253;52.354;13.614;2024-01-30T12:24:00;14;10;
76420;PMS5003;65253;52.354;13.614;2024-01-30T12:28:00;10;7;
76420;PMS5003;65253;52.354;13.614;2024-01-30T12:32:00;9;8;
76420;PMS5003;65253;52.354;13.614;2024-01-30T12:36:04;10;10;
76420;PMS5003;65253;52.354;13.614;2024-01-30T12:40:01;9;8;
76420;PMS5003;65253;52.354;13.614;2024-01-30T12:44:00;10;10;
76420;PMS5003;65253;52.354;13.614;2024-01-30T12:48:00;11;10;
76420;PMS5003;65253;52.354;13.614;2024-01-30T12:52:00;15;11;
76420;PMS5003;65253;52.354;13.614;2024-01-30T12:56:00;11;8;
76420;PMS5003;65253;52.354;13.614;2024-01-30T13:00:00;12;10;
76420;PMS5003;65253;52.354;13.614;2024-01-30T13:04:00;12;10;
76420;PMS5003;65253;52.354;13.614;2024-01-30T13:08:00;13;11;
76420;PMS5003;65253;52.354;13.614;2024-01-30T13:12:00;11;10;
76420;PMS5003;65253;52.354;13.614;2024-01-30T13:16:00;13;10;
76420;PMS5003;65253;52.354;13.614;2024-01-30T13:20:11;18;10;
76420;PMS5003;65253;52.354;13.614;2024-01-30T13:24:00;9;7;
76420;PMS5003;65253;52.354;13.614;2024-01-30T13:28:00;12;9;
76420;PMS5003;65253;52.354;13.614;2024-01-30T13:32:00;14;11;
76420;PMS5003;65253;52.354;13.614;2024-01-30T13:36:00;10;9;
76420;PMS5003;65253;52.354;13.614;2024-01-30T13:40:04;12;9;
76420;PMS5003;65253;52.354;13.614;2024-01-30T13:44:00;15;8;
76420;PMS5003;65253;52.354;13.614;2024-01-30T13:48:01;10;9;
76420;PMS5003;65253;52.354;13.614;2024-01-30T13:52:00;10;7;
76420;PMS5003;65253;52.354;13.614;2024-01-30T13:56:00;12;8;
76420;PMS5003;65253;52.354;13.614;2024-01-30T14:00:00;12;9;
76420;PMS5003;65253;52.354;13.614;2024-01-30T14:04:00;10;9;
76420;PMS5003;65253;52.354;13.614;2024-01-30T14:08:00;11;10;
76420;PMS5003;65253;52.354;13.614;2024-01-30T14:12:00;8;7;
76420;PMS5003;65253;52.354;13.614;2024-01-30T14:16:00;11;11;
76420;PMS5003;65253;52.354;13.614;2024-01-30T14:20:00;14;9;
76420;PMS5003;65253;52.354;13.614;2024-01-30T14:24:00;11;9;
76420;PMS5003;65253;52.354;13.614;2024-01-30T14:28:00;13;10;
76420;PMS5003;65253;52.354;13.614;2024-01-30T14:32:00;10;8;
76420;PMS5003;65253;52.354;13.614;2024-01-30T14:36:00;24;17;
76420;PMS5003;65253;52.354;13.614;2024-01-30T14:40:00;18;12;
76420;PMS5003;65253;52.354;13.614;2024-01-30T14:44:00;10;10;
76420;PMS5003;65253;52.354;13.614;2024-01-30T14:48:00;15;10;
76420;PMS5003;65253;52.354;13.614;2024-01-30T14:52:00;14;10;
76420;PMS5003;65253;52.354;13.614;2024-01-30T14:56:00;10;8;
76420;PMS5003;65253;52.354;13.614;2024-01-30T15:00:00;58;55;
76420;PMS5003;65253;52.354;13.614;2024-01-30T15:04:00;15;14;
76420;PMS5003;65253;52.354;13.614;2024-01-30T15:08:00;14;11;
76420;PMS5003;65253;52.354;13.614;2024-01-30T15:12:00;13;11;
76420;PMS5003;65253;52.354;13.614;2024-01-30T15:16:00;13;10;
76420;PMS5003;65253;52.354;13.614;2024-01-30T15:20:00;19;14;
76420;PMS5003;65253;52.354;13.614;2024-01-30T15:24:00;14;12;
76420;PMS5003;65253;52.354;13.614;2024-01-30T15:28:00;15;11;
76420;PMS5003;65253;52.354;13.614;2024-01-30T15:32:00;12;11;
76420;PMS5003;65253;52.354;13.614;2024-01-30T15:36:00;17;14;
76420;PMS5003;65253;52.354;13.614;2024-01-30T15:40:00;11;10;
76420;PMS5003;65253;52.354;13.614;2024-01-30T15:44:00;13;12;
76420;PMS5003;65253;52.354;13.614;2024-01-30T15:48:00;15;10;
76420;PMS5003;65253;52.354;13.614;2024-01-30T15:52:00;12;9;
76420;PMS5003;65253;52.354;13.614;2024-01-30T15:56:00;13;11;
76420;PMS5003;65253;52.354;13.614;2024-01-30T16:00:00;11;10;
76420;PMS5003;65253;52.354;13.614;2024-01-30T16:04:00;16;11;
76420;PMS5003;65253;52.354;13.614;2024-01-30T16:08:00;16;12;
76420;PMS5003;65253;52.354;13.614;2024-01-30T16:12:00;11;11;
76420;PMS5003;65253;52.354;13.614;2024-01-30T16:16:00;13;10;
76420;PMS5003;65253;52.354;13.614;2024-01-30T16:20:00;17;13;
76420;PMS5003;65253;52.354;13.614;2024-01-30T16:24:00;18;10;
76420;PMS5003;65253;52.354;13.614;2024-01-30T16:28:00;17;13;
76420;PMS5003;65253;52.354;13.614;2024-01-30T16:32:00;22;16;
76420;PMS5003;65253;52.354;13.614;2024-01-30T16:36:00;30;19;
76420;PMS5003;65253;52.354;13.614;2024-01-30T16:40:00;24;19;
76420;PMS5003;65253;52.354;13.614;2024-01-30T16:44:00;45;32;
76420;PMS5003;65253;52.354;13.614;2024-01-30T16:48:00;37;28;
76420;PMS5003;65253;52.354;13.614;2024-01-30T16:52:03;36;30;
76420;PMS5003;65253;52.354;13.614;2024-01-30T16:56:00;41;31;
76420;PMS5003;65253;52.354;13.614;2024-01-30T17:00:00;33;30;
76420;PMS5003;65253;52.354;13.614;2024-01-30T17:04:00;29;24;
76420;PMS5003;65253;52.354;13.614;2024-01-30T17:08:00;39;33;
76420;PMS5003;65253;52.354;13.614;2024-01-30T17:12:00;22;21;
76420;PMS5003;65253;52.354;13.614;2024-01-30T17:16:00;28;22;
76420;PMS5003;65253;52.354;13.614;2024-01-30T17:20:00;23;17;
76420;PMS5003;65253;52.354;13.614;2024-01-30T17:24:00;23;19;
76420;PMS5003;65253;52.354;13.614;2024-01-30T17:28:00;25;21;
76420;PMS5003;65253;52.354;13.614;2024-01-30T17:32:00;31;22;
76420;PMS5003;65253;52.354;13.614;2024-01-30T17:36:00;30;23;
76420;PMS5003;65253;52.354;13.614;2024-01-30T17:40:00;30;25;
76420;PMS5003;65253;52.354;13.614;2024-01-30T17:44:00;41;33;
76420;PMS5003;65253;52.354;13.614;2024-01-30T17:48:00;30;25;
76420;PMS5003;65253;52.354;13.614;2024-01-30T17:52:00;32;29;
76420;PMS5003;65253;52.354;13.614;2024-01-30T17:56:00;42;35;
76420;PMS5003;65253;52.354;13.614;2024-01-30T18:00:00;50;42;
76420;PMS5003;65253;52.354;13.614;2024-01-30T18:04:00;44;32;
76420;PMS5003;65253;52.354;13.614;2024-01-30T18:08:00;29;23;
76420;PMS5003;65253;52.354;13.614;2024-01-30T18:12:00;30;19;
76420;PMS5003;65253;52.354;13.614;2024-01-30T18:16:00;28;24;
76420;PMS5003;65253;52.354;13.614;2024-01-30T18:20:01;61;45;
76420;PMS5003;65253;52.354;13.614;2024-01-30T18:24:00;46;33;
76420;PMS5003;65253;52.354;13.614;2024-01-30T18:28:00;30;23;
76420;PMS5003;65253;52.354;13.614;2024-01-30T18:32:00;29;24;
76420;PMS5003;65253;52.354;13.614;2024-01-30T18:36:00;25;20;
76420;PMS5003;65253;52.354;13.614;2024-01-30T18:40:01;24;20;
76420;PMS5003;65253;52.354;13.614;2024-01-30T18:44:00;24;22;
76420;PMS5003;65253;52.354;13.614;2024-01-30T18:48:00;29;23;
76420;PMS5003;65253;52.354;13.614;2024-01-30T18:52:00;31;27;
76420;PMS5003;65253;52.354;13.614;2024-01-30T18:56:00;33;25;
76420;PMS5003;65253;52.354;13.614;2024-01-30T19:00:00;38;29;
76420;PMS5003;65253;52.354;13.614;2024-01-30T19:04:00;31;25;
76420;PMS5003;65253;52.354;13.614;2024-01-30T19:08:00;25;18;
76420;PMS5003;65253;52.354;13.614;2024-01-30T19:12:00;27;21;
76420;PMS5003;65253;52.354;13.614;2024-01-30T19:16:00;28;20;
76420;PMS5003;65253;52.354;13.614;2024-01-30T19:20:00;22;17;
76420;PMS5003;65253;52.354;13.614;2024-01-30T19:24:00;18;14;
76420;PMS5003;65253;52.354;13.614;2024-01-30T19:28:00;27;19;
76420;PMS5003;65253;52.354;13.614;2024-01-30T19:32:00;19;16;
76420;PMS5003;65253;52.354;13.614;2024-01-30T19:36:00;23;17;
76420;PMS5003;65253;52.354;13.614;2024-01-30T19:40:00;20;15;
76420;PMS5003;65253;52.354;13.614;2024-01-30T19:44:00;27;18;
76420;PMS5003;65253;52.354;13.614;2024-01-30T19:48:00;22;16;
76420;PMS5003;65253;52.354;13.614;2024-01-30T19:52:00;26;17;
76420;PMS5003;65253;52.354;13.614;2024-01-30T19:56:00;19;17;
76420;PMS5003;65253;52.354;13.614;2024-01-30T20:00:00;24;17;
76420;PMS5003;65253;52.354;13.614;2024-01-30T20:04:00;22;16;
76420;PMS5003;65253;52.354;13.614;2024-01-30T20:08:00;19;14;
76420;PMS5003;65253;52.354;13.614;2024-01-30T20:12:00;19;16;
76420;PMS5003;65253;52.354;13.614;2024-01-30T20:16:00;24;17;
76420;PMS5003;65253;52.354;13.614;2024-01-30T20:20:01;25;21;
76420;PMS5003;65253;52.354;13.614;2024-01-30T20:24:02;28;23;
76420;PMS5003;65253;52.354;13.614;2024-01-30T20:28:00;36;31;
76420;PMS5003;65253;52.354;13.614;2024-01-30T20:32:00;21;17;
76420;PMS5003;65253;52.354;13.614;2024-01-30T20:36:00;21;18;
76420;PMS5003;65253;52.354;13.614;2024-01-30T20:40:00;21;20;
76420;PMS5003;65253;52.354;13.614;2024-01-30T20:44:00;19;16;
76420;PMS5003;65253;52.354;13.614;2024-01-30T20:48:00;26;20;
76420;PMS5003;65253;52.354;13.614;2024-01-30T20:52:00;21;17;
76420;PMS5003;65253;52.354;13.614;2024-01-30T20:56:00;32;21;
76420;PMS5003;65253;52.354;13.614;2024-01-30T21:00:00;23;21;
76420;PMS5003;65253;52.354;13.614;2024-01-30T21:04:00;36;28;
76420;PMS5003;65253;52.354;13.614;2024-01-30T21:08:00;38;31;
76420;PMS5003;65253;52.354;13.614;2024-01-30T21:12:00;38;29;
76420;PMS5003;65253;52.354;13.614;2024-01-30T21:16:00;25;21;
76420;PMS5003;65253;52.354;13.614;2024-01-30T21:20:00;29;22;
76420;PMS5003;65253;52.354;13.614;2024-01-30T21:24:00;30;25;
76420;PMS5003;65253;52.354;13.614;2024-01-30T21:28:00;26;24;
76420;PMS5003;65253;52.354;13.614;2024-01-30T21:32:00;23;21;
76420;PMS5003;65253;52.354;13.614;2024-01-30T21:36:00;19;16;
76420;PMS5003;65253;52.354;13.614;2024-01-30T21:40:00;19;16;
76420;PMS5003;65253;52.354;13.614;2024-01-30T21:44:00;16;16;
76420;PMS5003;65253;52.354;13.614;2024-01-30T21:48:00;16;14;
76420;PMS5003;65253;52.354;13.614;2024-01-30T21:52:00;19;15;
76420;PMS5003;65253;52.354;13.614;2024-01-30T21:56:00;22;17;
76420;PMS5003;65253;52.354;13.614;2024-01-30T22:00:00;23;16;
76420;PMS5003;65253;52.354;13.614;2024-01-30T22:04:00;23;17;
76420;PMS5003;65253;52.354;13.614;2024-01-30T22:08:00;22;18;
76420;PMS5003;65253;52.354;13.614;2024-01-30T22:12:00;17;17;
76420;PMS5003;65253;52.354;13.614;2024-01-30T22:16:00;32;18;
76420;PMS5003;65253;52.354;13.614;2024-01-30T22:20:00;20;16;
76420;PMS5003;65253;52.354;13.614;2024-01-30T22:24:00;29;22;
76420;PMS5003;65253;52.354;13.614;2024-01-30T22:28:00;19;18;
76420;PMS5003;65253;52.354;13.614;2024-01-30T22:32:00;23;18;
76420;PMS5003;65253;52.354;13.614;2024-01-30T22:36:00;26;19;
76420;PMS5003;65253;52.354;13.614;2024-01-30T22:40:00;19;15;
76420;PMS5003;65253;52.354;13.614;2024-01-30T22:44:00;24;19;
76420;PMS5003;65253;52.354;13.614;2024-01-30T22:48:00;23;16;
76420;PMS5003;65253;52.354;13.614;2024-01-30T22:52:00;21;17;
76420;PMS5003;65253;52.354;13.614;2024-01-30T22:56:00;23;16;
76420;PMS5003;65253;52.354;13.614;2024-01-30T23:00:00;21;15;
76420;PMS5003;65253;52.354;13.614;2024-01-30T23:04:00;20;17;
76420;PMS5003;65253;52.354;13.614;2024-01-30T23:08:00;18;16;
76420;PMS5003;65253;52.354;13.614;2024-01-30T23:12:00;23;16;
76420;PMS5003;65253;52.354;13.614;2024-01-30T23:16:00;20;18;
76420;PMS5003;65253;52.354;13.614;2024-01-30T23:20:00;25;17;
76420;PMS5003;65253;52.354;13.614;2024-01-30T23:24:00;20;17;
76420;PMS5003;65253;52.354;13.614;2024-01-30T23:28:00;22;20;
76420;PMS5003;65253;52.354;13.614;2024-01-30T23:32:00;20;16;
76420;PMS5003;65253;52.354;13.614;2024-01-30T23:36:00;23;16;
76420;PMS5003;65253;52.354;13.614;2024-01-30T23:40:00;20;16;
76420;PMS5003;65253;52.354;13.614;2024-01-30T23:44:00;22;16;
76420;PMS5003;65253;52.354;13.614;2024-01-30T23:48:01;15;12;
76420;PMS5003;65253;52.354;13.614;2024-01-30T23:52:00;20;17;
76420;PMS5003;65253;52.354;13.614;2024-01-30T23:56:00;16;12;
